sensor_id;sensor_type;location;lat;lon;timestamp;temperature;humidity
9393;DHT22;4736;52.508;13.422;2023-04-24T00:00:55;11.50;71.60
9393;DHT22;4736;52.508;13.422;2023-04-24T00:03:59;11.50;71.60
9393;DHT22;4736;52.508;13.422;2023-04-24T00:07:03;11.50;71.70
9393;DHT22;4736;52.508;13.422;2023-04-24T00:10:09;11.50;71.90
9393;DHT22;4736;52.508;13.422;2023-04-24T00:13:14;11.50;71.90
9393;DHT22;4736;52.508;13.422;2023-04-24T00:16:17;11.40;72.10
9393;DHT22;4736;52.508;13.422;2023-04-24T00:19:20;11.40;72.20
9393;DHT22;4736;52.508;13.422;2023-04-24T00:22:24;11.40;72.10
9393;DHT22;4736;52.508;13.422;2023-04-24T00:25:27;11.40;72.30
9393;DHT22;4736;52.508;13.422;2023-04-24T00:28:32;11.40;72.30
9393;DHT22;4736;52.508;13.422;2023-04-24T00:31:35;11.40;72.30
9393;DHT22;4736;52.508;13.422;2023-04-24T00:34:39;11.40;72.30
9393;DHT22;4736;52.508;13.422;2023-04-24T00:37:42;11.30;72.50
9393;DHT22;4736;52.508;13.422;2023-04-24T00:40:45;11.40;72.60
9393;DHT22;4736;52.508;13.422;2023-04-24T00:43:51;11.30;72.70
9393;DHT22;4736;52.508;13.422;2023-04-24T00:46:55;11.30;72.90
9393;DHT22;4736;52.508;13.422;2023-04-24T00:49:58;11.30;73.00
9393;DHT22;4736;52.508;13.422;2023-04-24T00:53:01;11.30;73.20
9393;DHT22;4736;52.508;13.422;2023-04-24T00:56:05;11.20;73.20
9393;DHT22;4736;52.508;13.422;2023-04-24T00:59:09;11.20;73.30
9393;DHT22;4736;52.508;13.422;2023-04-24T01:02:13;11.10;73.60
9393;DHT22;4736;52.508;13.422;2023-04-24T01:05:17;11.10;73.60
9393;DHT22;4736;52.508;13.422;2023-04-24T01:08:22;11.10;73.70
9393;DHT22;4736;52.508;13.422;2023-04-24T01:11:26;11.20;73.60
9393;DHT22;4736;52.508;13.422;2023-04-24T01:14:31;11.20;73.70
9393;DHT22;4736;52.508;13.422;2023-04-24T01:17:34;11.10;73.80
9393;DHT22;4736;52.508;13.422;2023-04-24T01:20:39;11.10;73.90
9393;DHT22;4736;52.508;13.422;2023-04-24T01:23:44;11.10;74.00
9393;DHT22;4736;52.508;13.422;2023-04-24T01:26:48;11.10;74.10
9393;DHT22;4736;52.508;13.422;2023-04-24T01:29:51;11.10;74.20
9393;DHT22;4736;52.508;13.422;2023-04-24T01:32:55;11.10;74.20
9393;DHT22;4736;52.508;13.422;2023-04-24T01:35:59;11.10;74.10
9393;DHT22;4736;52.508;13.422;2023-04-24T01:39:04;11.10;74.00
9393;DHT22;4736;52.508;13.422;2023-04-24T01:42:07;11.10;74.10
9393;DHT22;4736;52.508;13.422;2023-04-24T01:45:11;11.10;74.10
9393;DHT22;4736;52.508;13.422;2023-04-24T01:48:15;11.10;74.10
9393;DHT22;4736;52.508;13.422;2023-04-24T01:51:18;11.10;74.10
9393;DHT22;4736;52.508;13.422;2023-04-24T01:54:23;11.10;74.20
9393;DHT22;4736;52.508;13.422;2023-04-24T01:57:26;11.10;74.30
9393;DHT22;4736;52.508;13.422;2023-04-24T02:00:29;11.10;74.30
9393;DHT22;4736;52.508;13.422;2023-04-24T02:03:32;11.10;74.40
9393;DHT22;4736;52.508;13.422;2023-04-24T02:06:36;11.00;74.70
9393;DHT22;4736;52.508;13.422;2023-04-24T02:09:40;11.00;74.80
9393;DHT22;4736;52.508;13.422;2023-04-24T02:12:44;11.00;74.70
9393;DHT22;4736;52.508;13.422;2023-04-24T02:15:47;11.00;74.80
9393;DHT22;4736;52.508;13.422;2023-04-24T02:18:50;11.00;74.90
9393;DHT22;4736;52.508;13.422;2023-04-24T02:21:53;10.90;75.10
9393;DHT22;4736;52.508;13.422;2023-04-24T02:24:58;10.90;75.00
9393;DHT22;4736;52.508;13.422;2023-04-24T02:28:01;10.90;75.00
9393;DHT22;4736;52.508;13.422;2023-04-24T02:31:04;10.90;75.00
9393;DHT22;4736;52.508;13.422;2023-04-24T02:34:08;10.90;75.10
9393;DHT22;4736;52.508;13.422;2023-04-24T02:37:11;11.00;75.10
9393;DHT22;4736;52.508;13.422;2023-04-24T02:40:15;10.90;75.40
9393;DHT22;4736;52.508;13.422;2023-04-24T02:43:18;10.90;75.40
9393;DHT22;4736;52.508;13.422;2023-04-24T02:46:25;10.90;75.50
9393;DHT22;4736;52.508;13.422;2023-04-24T02:49:28;11.00;75.50
9393;DHT22;4736;52.508;13.422;2023-04-24T02:52:31;11.00;75.50
9393;DHT22;4736;52.508;13.422;2023-04-24T02:55:36;11.00;75.60
9393;DHT22;4736;52.508;13.422;2023-04-24T02:58:39;11.00;75.70
9393;DHT22;4736;52.508;13.422;2023-04-24T03:01:42;11.10;75.60
9393;DHT22;4736;52.508;13.422;2023-04-24T03:04:45;11.10;75.60
9393;DHT22;4736;52.508;13.422;2023-04-24T03:07:49;11.10;75.70
9393;DHT22;4736;52.508;13.422;2023-04-24T03:10:55;11.10;75.90
9393;DHT22;4736;52.508;13.422;2023-04-24T03:13:58;11.10;76.10
9393;DHT22;4736;52.508;13.422;2023-04-24T03:17:02;11.30;75.90
9393;DHT22;4736;52.508;13.422;2023-04-24T03:20:07;11.30;75.90
9393;DHT22;4736;52.508;13.422;2023-04-24T03:23:10;11.50;75.60
9393;DHT22;4736;52.508;13.422;2023-04-24T03:26:15;11.50;75.40
9393;DHT22;4736;52.508;13.422;2023-04-24T03:29:18;11.60;75.10
9393;DHT22;4736;52.508;13.422;2023-04-24T03:32:22;11.70;74.90
9393;DHT22;4736;52.508;13.422;2023-04-24T03:35:26;11.60;74.90
9393;DHT22;4736;52.508;13.422;2023-04-24T03:38:29;11.60;75.00
9393;DHT22;4736;52.508;13.422;2023-04-24T03:41:34;11.60;74.90
9393;DHT22;4736;52.508;13.422;2023-04-24T03:44:37;11.60;75.00
9393;DHT22;4736;52.508;13.422;2023-04-24T03:47:41;11.50;75.10
9393;DHT22;4736;52.508;13.422;2023-04-24T03:50:44;11.50;75.10
9393;DHT22;4736;52.508;13.422;2023-04-24T03:53:47;11.50;75.00
9393;DHT22;4736;52.508;13.422;2023-04-24T03:56:52;11.60;74.90
9393;DHT22;4736;52.508;13.422;2023-04-24T03:59:55;11.50;75.00
9393;DHT22;4736;52.508;13.422;2023-04-24T04:02:58;11.50;75.20
9393;DHT22;4736;52.508;13.422;2023-04-24T04:06:02;11.50;75.20
9393;DHT22;4736;52.508;13.422;2023-04-24T04:09:05;11.50;75.40
9393;DHT22;4736;52.508;13.422;2023-04-24T04:12:11;11.50;75.30
9393;DHT22;4736;52.508;13.422;2023-04-24T04:15:16;11.50;75.30
9393;DHT22;4736;52.508;13.422;2023-04-24T04:18:19;11.50;75.20
9393;DHT22;4736;52.508;13.422;2023-04-24T04:21:22;11.50;75.10
9393;DHT22;4736;52.508;13.422;2023-04-24T04:24:25;11.60;75.10
9393;DHT22;4736;52.508;13.422;2023-04-24T04:27:32;11.60;75.10
9393;DHT22;4736;52.508;13.422;2023-04-24T04:30:36;11.70;75.00
9393;DHT22;4736;52.508;13.422;2023-04-24T04:33:40;11.70;74.90
9393;DHT22;4736;52.508;13.422;2023-04-24T04:36:43;11.70;74.80
9393;DHT22;4736;52.508;13.422;2023-04-24T04:39:48;11.70;74.80
9393;DHT22;4736;52.508;13.422;2023-04-24T04:42:52;11.70;75.00
9393;DHT22;4736;52.508;13.422;2023-04-24T04:45:55;11.70;74.70
9393;DHT22;4736;52.508;13.422;2023-04-24T04:48:59;11.70;74.70
9393;DHT22;4736;52.508;13.422;2023-04-24T04:52:03;11.70;74.70
9393;DHT22;4736;52.508;13.422;2023-04-24T04:55:06;11.70;74.80
9393;DHT22;4736;52.508;13.422;2023-04-24T04:58:12;11.80;74.70
9393;DHT22;4736;52.508;13.422;2023-04-24T05:01:15;11.80;74.60
9393;DHT22;4736;52.508;13.422;2023-04-24T05:04:19;11.90;74.40
9393;DHT22;4736;52.508;13.422;2023-04-24T05:07:23;11.80;74.50
9393;DHT22;4736;52.508;13.422;2023-04-24T05:10:26;11.80;74.60
9393;DHT22;4736;52.508;13.422;2023-04-24T05:13:31;11.80;74.50
9393;DHT22;4736;52.508;13.422;2023-04-24T05:16:41;11.90;74.50
9393;DHT22;4736;52.508;13.422;2023-04-24T05:19:45;12.00;74.40
9393;DHT22;4736;52.508;13.422;2023-04-24T05:22:48;12.00;74.00
9393;DHT22;4736;52.508;13.422;2023-04-24T05:25:51;12.10;73.80
9393;DHT22;4736;52.508;13.422;2023-04-24T05:28:55;12.20;73.50
9393;DHT22;4736;52.508;13.422;2023-04-24T05:31:58;12.20;73.60
9393;DHT22;4736;52.508;13.422;2023-04-24T05:35:02;12.30;73.30
9393;DHT22;4736;52.508;13.422;2023-04-24T05:38:06;12.40;72.70
9393;DHT22;4736;52.508;13.422;2023-04-24T05:41:09;12.50;72.50
9393;DHT22;4736;52.508;13.422;2023-04-24T05:44:13;12.50;72.20
9393;DHT22;4736;52.508;13.422;2023-04-24T05:47:16;12.70;71.40
9393;DHT22;4736;52.508;13.422;2023-04-24T05:50:19;12.70;71.10
9393;DHT22;4736;52.508;13.422;2023-04-24T05:53:22;12.80;71.00
9393;DHT22;4736;52.508;13.422;2023-04-24T05:56:26;12.90;70.10
9393;DHT22;4736;52.508;13.422;2023-04-24T05:59:30;13.00;69.70
9393;DHT22;4736;52.508;13.422;2023-04-24T06:02:34;13.00;69.80
9393;DHT22;4736;52.508;13.422;2023-04-24T06:05:37;13.00;69.60
9393;DHT22;4736;52.508;13.422;2023-04-24T06:08:40;13.10;69.20
9393;DHT22;4736;52.508;13.422;2023-04-24T06:11:45;13.20;69.10
9393;DHT22;4736;52.508;13.422;2023-04-24T06:14:50;13.30;68.60
9393;DHT22;4736;52.508;13.422;2023-04-24T06:17:55;13.60;67.80
9393;DHT22;4736;52.508;13.422;2023-04-24T06:20:58;13.70;67.60
9393;DHT22;4736;52.508;13.422;2023-04-24T06:24:02;13.90;67.00
9393;DHT22;4736;52.508;13.422;2023-04-24T06:27:06;14.10;66.40
9393;DHT22;4736;52.508;13.422;2023-04-24T06:30:11;14.00;66.30
9393;DHT22;4736;52.508;13.422;2023-04-24T06:33:15;14.10;66.00
9393;DHT22;4736;52.508;13.422;2023-04-24T06:36:22;13.80;66.80
9393;DHT22;4736;52.508;13.422;2023-04-24T06:39:26;13.80;66.50
9393;DHT22;4736;52.508;13.422;2023-04-24T06:42:29;13.70;66.50
9393;DHT22;4736;52.508;13.422;2023-04-24T06:45:34;13.90;66.20
9393;DHT22;4736;52.508;13.422;2023-04-24T06:48:37;14.10;66.00
9393;DHT22;4736;52.508;13.422;2023-04-24T06:51:40;14.30;65.00
9393;DHT22;4736;52.508;13.422;2023-04-24T06:54:44;14.30;64.80
9393;DHT22;4736;52.508;13.422;2023-04-24T06:57:47;14.40;65.10
9393;DHT22;4736;52.508;13.422;2023-04-24T07:00:52;14.60;64.10
9393;DHT22;4736;52.508;13.422;2023-04-24T07:03:55;14.90;63.90
9393;DHT22;4736;52.508;13.422;2023-04-24T07:06:59;15.00;62.70
9393;DHT22;4736;52.508;13.422;2023-04-24T07:10:07;15.00;62.90
9393;DHT22;4736;52.508;13.422;2023-04-24T07:13:10;15.20;62.50
9393;DHT22;4736;52.508;13.422;2023-04-24T07:16:14;15.30;62.50
9393;DHT22;4736;52.508;13.422;2023-04-24T07:19:18;15.60;61.60
9393;DHT22;4736;52.508;13.422;2023-04-24T07:22:21;15.70;60.70
9393;DHT22;4736;52.508;13.422;2023-04-24T07:25:24;15.70;59.70
9393;DHT22;4736;52.508;13.422;2023-04-24T07:28:27;15.60;59.90
9393;DHT22;4736;52.508;13.422;2023-04-24T07:31:34;15.70;59.50
9393;DHT22;4736;52.508;13.422;2023-04-24T07:34:37;15.80;58.70
9393;DHT22;4736;52.508;13.422;2023-04-24T07:37:40;15.80;58.70
9393;DHT22;4736;52.508;13.422;2023-04-24T07:40:47;15.80;57.40
9393;DHT22;4736;52.508;13.422;2023-04-24T07:43:50;15.60;57.80
9393;DHT22;4736;52.508;13.422;2023-04-24T07:46:56;15.50;58.00
9393;DHT22;4736;52.508;13.422;2023-04-24T07:49:59;15.40;57.80
9393;DHT22;4736;52.508;13.422;2023-04-24T07:53:02;15.50;58.50
9393;DHT22;4736;52.508;13.422;2023-04-24T07:56:05;15.60;58.20
9393;DHT22;4736;52.508;13.422;2023-04-24T07:59:09;15.80;56.50
9393;DHT22;4736;52.508;13.422;2023-04-24T08:02:14;15.80;56.40
9393;DHT22;4736;52.508;13.422;2023-04-24T08:05:17;15.80;56.70
9393;DHT22;4736;52.508;13.422;2023-04-24T08:08:22;16.10;57.40
9393;DHT22;4736;52.508;13.422;2023-04-24T08:11:25;16.40;56.20
9393;DHT22;4736;52.508;13.422;2023-04-24T08:14:29;16.40;55.90
9393;DHT22;4736;52.508;13.422;2023-04-24T08:17:34;16.60;55.00
9393;DHT22;4736;52.508;13.422;2023-04-24T08:20:37;16.60;54.20
9393;DHT22;4736;52.508;13.422;2023-04-24T08:23:40;16.50;54.00
9393;DHT22;4736;52.508;13.422;2023-04-24T08:26:43;16.40;54.50
9393;DHT22;4736;52.508;13.422;2023-04-24T08:29:47;16.40;54.30
9393;DHT22;4736;52.508;13.422;2023-04-24T08:32:51;16.40;53.90
9393;DHT22;4736;52.508;13.422;2023-04-24T08:35:54;16.40;54.80
9393;DHT22;4736;52.508;13.422;2023-04-24T08:38:57;16.50;54.50
9393;DHT22;4736;52.508;13.422;2023-04-24T08:42:01;16.70;55.10
9393;DHT22;4736;52.508;13.422;2023-04-24T08:45:10;16.40;55.10
9393;DHT22;4736;52.508;13.422;2023-04-24T08:48:15;16.50;54.70
9393;DHT22;4736;52.508;13.422;2023-04-24T08:51:32;16.60;54.90
9393;DHT22;4736;52.508;13.422;2023-04-24T08:54:36;17.00;55.20
9393;DHT22;4736;52.508;13.422;2023-04-24T08:57:39;17.20;54.90
9393;DHT22;4736;52.508;13.422;2023-04-24T09:00:43;17.40;53.70
9393;DHT22;4736;52.508;13.422;2023-04-24T09:03:51;17.50;53.40
9393;DHT22;4736;52.508;13.422;2023-04-24T09:06:57;17.50;53.40
9393;DHT22;4736;52.508;13.422;2023-04-24T09:10:02;17.50;52.50
9393;DHT22;4736;52.508;13.422;2023-04-24T09:13:06;17.50;53.40
9393;DHT22;4736;52.508;13.422;2023-04-24T09:16:11;17.40;53.50
9393;DHT22;4736;52.508;13.422;2023-04-24T09:19:16;17.30;54.00
9393;DHT22;4736;52.508;13.422;2023-04-24T09:22:20;17.20;55.20
9393;DHT22;4736;52.508;13.422;2023-04-24T09:25:25;16.90;55.90
9393;DHT22;4736;52.508;13.422;2023-04-24T09:28:36;16.40;56.20
9393;DHT22;4736;52.508;13.422;2023-04-24T09:31:39;16.30;56.40
9393;DHT22;4736;52.508;13.422;2023-04-24T09:34:47;16.40;56.20
9393;DHT22;4736;52.508;13.422;2023-04-24T09:37:50;16.70;56.70
9393;DHT22;4736;52.508;13.422;2023-04-24T09:40:53;16.70;56.60
9393;DHT22;4736;52.508;13.422;2023-04-24T09:43:57;16.90;56.40
9393;DHT22;4736;52.508;13.422;2023-04-24T09:47:08;17.00;56.60
9393;DHT22;4736;52.508;13.422;2023-04-24T09:50:16;17.00;56.80
9393;DHT22;4736;52.508;13.422;2023-04-24T09:53:24;17.20;55.90
9393;DHT22;4736;52.508;13.422;2023-04-24T09:56:27;17.00;56.50
9393;DHT22;4736;52.508;13.422;2023-04-24T09:59:31;17.00;56.40
9393;DHT22;4736;52.508;13.422;2023-04-24T10:02:36;17.20;55.30
9393;DHT22;4736;52.508;13.422;2023-04-24T10:05:41;17.20;55.30
9393;DHT22;4736;52.508;13.422;2023-04-24T10:08:45;17.00;55.70
9393;DHT22;4736;52.508;13.422;2023-04-24T10:11:50;17.20;55.60
9393;DHT22;4736;52.508;13.422;2023-04-24T10:14:55;17.10;56.40
9393;DHT22;4736;52.508;13.422;2023-04-24T10:17:59;17.20;55.70
9393;DHT22;4736;52.508;13.422;2023-04-24T10:21:04;17.50;55.20
9393;DHT22;4736;52.508;13.422;2023-04-24T10:24:08;17.40;55.90
9393;DHT22;4736;52.508;13.422;2023-04-24T10:27:13;17.00;55.70
9393;DHT22;4736;52.508;13.422;2023-04-24T10:30:18;17.20;56.10
9393;DHT22;4736;52.508;13.422;2023-04-24T10:33:22;17.30;56.40
9393;DHT22;4736;52.508;13.422;2023-04-24T10:36:28;17.20;56.10
9393;DHT22;4736;52.508;13.422;2023-04-24T10:39:34;17.30;55.80
9393;DHT22;4736;52.508;13.422;2023-04-24T10:42:40;17.10;55.80
9393;DHT22;4736;52.508;13.422;2023-04-24T10:46:00;17.10;55.90
9393;DHT22;4736;52.508;13.422;2023-04-24T10:49:05;17.20;55.90
9393;DHT22;4736;52.508;13.422;2023-04-24T10:52:11;17.00;55.50
9393;DHT22;4736;52.508;13.422;2023-04-24T10:55:15;16.70;56.00
9393;DHT22;4736;52.508;13.422;2023-04-24T10:58:22;16.60;56.10
9393;DHT22;4736;52.508;13.422;2023-04-24T11:01:26;16.60;56.20
9393;DHT22;4736;52.508;13.422;2023-04-24T11:04:30;16.70;56.40
9393;DHT22;4736;52.508;13.422;2023-04-24T11:11:12;16.80;56.20
9393;DHT22;4736;52.508;13.422;2023-04-24T11:14:16;17.00;56.60
9393;DHT22;4736;52.508;13.422;2023-04-24T11:17:28;17.20;56.00
9393;DHT22;4736;52.508;13.422;2023-04-24T11:20:31;17.70;54.70
9393;DHT22;4736;52.508;13.422;2023-04-24T11:23:36;18.00;54.10
9393;DHT22;4736;52.508;13.422;2023-04-24T11:26:41;18.10;54.20
9393;DHT22;4736;52.508;13.422;2023-04-24T11:29:46;17.90;54.60
9393;DHT22;4736;52.508;13.422;2023-04-24T11:32:51;17.80;54.30
9393;DHT22;4736;52.508;13.422;2023-04-24T11:35:54;17.60;54.40
9393;DHT22;4736;52.508;13.422;2023-04-24T11:38:58;17.50;54.80
9393;DHT22;4736;52.508;13.422;2023-04-24T11:42:03;17.00;55.90
9393;DHT22;4736;52.508;13.422;2023-04-24T11:45:09;16.40;59.80
9393;DHT22;4736;52.508;13.422;2023-04-24T11:48:18;16.00;62.00
9393;DHT22;4736;52.508;13.422;2023-04-24T11:51:24;16.00;62.10
9393;DHT22;4736;52.508;13.422;2023-04-24T11:54:37;16.00;62.60
9393;DHT22;4736;52.508;13.422;2023-04-24T11:57:43;16.00;62.10
9393;DHT22;4736;52.508;13.422;2023-04-24T12:00:46;16.40;61.50
9393;DHT22;4736;52.508;13.422;2023-04-24T12:04:00;16.60;61.30
9393;DHT22;4736;52.508;13.422;2023-04-24T12:07:03;16.80;59.90
9393;DHT22;4736;52.508;13.422;2023-04-24T12:10:07;16.80;60.20
9393;DHT22;4736;52.508;13.422;2023-04-24T12:13:13;16.80;59.80
9393;DHT22;4736;52.508;13.422;2023-04-24T12:16:16;16.90;59.80
9393;DHT22;4736;52.508;13.422;2023-04-24T12:19:21;17.20;59.30
9393;DHT22;4736;52.508;13.422;2023-04-24T12:22:24;17.20;59.40
9393;DHT22;4736;52.508;13.422;2023-04-24T12:25:28;17.60;59.40
9393;DHT22;4736;52.508;13.422;2023-04-24T12:28:36;17.80;58.10
9393;DHT22;4736;52.508;13.422;2023-04-24T12:31:40;17.80;57.40
9393;DHT22;4736;52.508;13.422;2023-04-24T12:34:43;17.70;56.60
9393;DHT22;4736;52.508;13.422;2023-04-24T12:37:46;18.00;56.40
9393;DHT22;4736;52.508;13.422;2023-04-24T12:41:01;18.10;53.70
9393;DHT22;4736;52.508;13.422;2023-04-24T12:44:10;18.20;53.50
9393;DHT22;4736;52.508;13.422;2023-04-24T12:47:13;18.10;52.90
9393;DHT22;4736;52.508;13.422;2023-04-24T12:50:17;18.30;52.20
9393;DHT22;4736;52.508;13.422;2023-04-24T12:53:20;18.40;50.70
9393;DHT22;4736;52.508;13.422;2023-04-24T12:56:23;18.20;48.50
9393;DHT22;4736;52.508;13.422;2023-04-24T12:59:27;18.30;48.20
9393;DHT22;4736;52.508;13.422;2023-04-24T13:02:31;18.10;47.20
9393;DHT22;4736;52.508;13.422;2023-04-24T13:05:34;18.10;47.90
9393;DHT22;4736;52.508;13.422;2023-04-24T13:08:37;18.20;47.60
9393;DHT22;4736;52.508;13.422;2023-04-24T13:11:40;18.40;47.00
9393;DHT22;4736;52.508;13.422;2023-04-24T13:14:44;18.50;46.10
9393;DHT22;4736;52.508;13.422;2023-04-24T13:17:48;18.40;46.90
9393;DHT22;4736;52.508;13.422;2023-04-24T13:20:51;18.60;44.80
9393;DHT22;4736;52.508;13.422;2023-04-24T13:23:54;18.70;44.20
9393;DHT22;4736;52.508;13.422;2023-04-24T13:26:57;18.70;45.30
9393;DHT22;4736;52.508;13.422;2023-04-24T13:30:01;18.80;44.80
9393;DHT22;4736;52.508;13.422;2023-04-24T13:33:04;18.60;45.60
9393;DHT22;4736;52.508;13.422;2023-04-24T13:36:08;18.70;45.30
9393;DHT22;4736;52.508;13.422;2023-04-24T13:39:11;18.40;44.40
9393;DHT22;4736;52.508;13.422;2023-04-24T13:42:14;18.20;44.50
9393;DHT22;4736;52.508;13.422;2023-04-24T13:45:18;18.00;44.10
9393;DHT22;4736;52.508;13.422;2023-04-24T13:48:26;18.10;44.00
9393;DHT22;4736;52.508;13.422;2023-04-24T13:51:29;18.20;43.70
9393;DHT22;4736;52.508;13.422;2023-04-24T13:54:32;18.30;44.00
9393;DHT22;4736;52.508;13.422;2023-04-24T13:57:35;18.20;45.20
9393;DHT22;4736;52.508;13.422;2023-04-24T14:00:40;18.40;43.80
9393;DHT22;4736;52.508;13.422;2023-04-24T14:03:43;18.60;43.50
9393;DHT22;4736;52.508;13.422;2023-04-24T14:06:46;18.60;44.40
9393;DHT22;4736;52.508;13.422;2023-04-24T14:09:49;18.80;43.60
9393;DHT22;4736;52.508;13.422;2023-04-24T14:12:53;18.50;43.90
9393;DHT22;4736;52.508;13.422;2023-04-24T14:16:00;18.20;44.10
9393;DHT22;4736;52.508;13.422;2023-04-24T14:19:03;18.20;44.70
9393;DHT22;4736;52.508;13.422;2023-04-24T14:22:07;18.00;44.60
9393;DHT22;4736;52.508;13.422;2023-04-24T14:25:10;17.80;44.70
9393;DHT22;4736;52.508;13.422;2023-04-24T14:28:13;17.50;45.00
9393;DHT22;4736;52.508;13.422;2023-04-24T14:31:17;17.20;45.30
9393;DHT22;4736;52.508;13.422;2023-04-24T14:34:20;17.40;44.70
9393;DHT22;4736;52.508;13.422;2023-04-24T14:37:24;17.40;45.80
9393;DHT22;4736;52.508;13.422;2023-04-24T14:40:27;17.70;44.90
9393;DHT22;4736;52.508;13.422;2023-04-24T14:43:50;17.80;44.20
9393;DHT22;4736;52.508;13.422;2023-04-24T14:46:54;17.60;44.10
9393;DHT22;4736;52.508;13.422;2023-04-24T14:49:58;17.50;44.20
9393;DHT22;4736;52.508;13.422;2023-04-24T14:53:01;17.20;45.70
9393;DHT22;4736;52.508;13.422;2023-04-24T14:56:05;17.20;45.70
9393;DHT22;4736;52.508;13.422;2023-04-24T14:59:08;17.20;45.20
9393;DHT22;4736;52.508;13.422;2023-04-24T15:02:15;17.20;45.70
9393;DHT22;4736;52.508;13.422;2023-04-24T15:05:22;17.00;45.10
9393;DHT22;4736;52.508;13.422;2023-04-24T15:08:27;16.90;45.30
9393;DHT22;4736;52.508;13.422;2023-04-24T15:11:31;16.80;46.10
9393;DHT22;4736;52.508;13.422;2023-04-24T15:14:35;16.90;46.60
9393;DHT22;4736;52.508;13.422;2023-04-24T15:17:39;17.00;46.20
9393;DHT22;4736;52.508;13.422;2023-04-24T15:20:43;17.00;46.60
9393;DHT22;4736;52.508;13.422;2023-04-24T15:23:47;16.80;46.80
9393;DHT22;4736;52.508;13.422;2023-04-24T15:26:50;16.80;47.50
9393;DHT22;4736;52.508;13.422;2023-04-24T15:29:53;16.80;47.10
9393;DHT22;4736;52.508;13.422;2023-04-24T15:32:59;16.90;45.70
9393;DHT22;4736;52.508;13.422;2023-04-24T15:36:03;16.90;45.80
9393;DHT22;4736;52.508;13.422;2023-04-24T15:39:06;16.70;45.50
9393;DHT22;4736;52.508;13.422;2023-04-24T15:42:11;16.50;45.70
9393;DHT22;4736;52.508;13.422;2023-04-24T15:45:14;16.20;46.90
9393;DHT22;4736;52.508;13.422;2023-04-24T15:48:19;16.00;46.80
9393;DHT22;4736;52.508;13.422;2023-04-24T15:51:22;16.00;48.30
9393;DHT22;4736;52.508;13.422;2023-04-24T15:54:25;16.00;47.20
9393;DHT22;4736;52.508;13.422;2023-04-24T15:57:28;16.00;47.30
9393;DHT22;4736;52.508;13.422;2023-04-24T16:00:32;15.80;47.60
9393;DHT22;4736;52.508;13.422;2023-04-24T16:03:37;15.80;47.50
9393;DHT22;4736;52.508;13.422;2023-04-24T16:06:42;15.80;47.90
9393;DHT22;4736;52.508;13.422;2023-04-24T16:09:45;15.80;48.10
9393;DHT22;4736;52.508;13.422;2023-04-24T16:12:48;15.80;48.20
9393;DHT22;4736;52.508;13.422;2023-04-24T16:15:52;15.80;47.90
9393;DHT22;4736;52.508;13.422;2023-04-24T16:18:56;15.70;48.10
9393;DHT22;4736;52.508;13.422;2023-04-24T16:21:59;15.60;48.50
9393;DHT22;4736;52.508;13.422;2023-04-24T16:25:04;15.40;49.30
9393;DHT22;4736;52.508;13.422;2023-04-24T16:28:08;15.30;48.80
9393;DHT22;4736;52.508;13.422;2023-04-24T16:31:11;15.30;49.70
9393;DHT22;4736;52.508;13.422;2023-04-24T16:34:16;15.50;49.30
9393;DHT22;4736;52.508;13.422;2023-04-24T16:37:19;15.50;49.50
9393;DHT22;4736;52.508;13.422;2023-04-24T16:40:22;15.50;49.30
9393;DHT22;4736;52.508;13.422;2023-04-24T16:43:25;15.60;49.00
9393;DHT22;4736;52.508;13.422;2023-04-24T16:46:28;15.50;49.00
9393;DHT22;4736;52.508;13.422;2023-04-24T16:49:33;15.40;49.20
9393;DHT22;4736;52.508;13.422;2023-04-24T16:52:36;15.30;49.80
9393;DHT22;4736;52.508;13.422;2023-04-24T16:55:39;15.00;51.20
9393;DHT22;4736;52.508;13.422;2023-04-24T16:58:42;14.60;52.70
9393;DHT22;4736;52.508;13.422;2023-04-24T17:01:46;14.20;53.40
9393;DHT22;4736;52.508;13.422;2023-04-24T17:04:51;13.90;54.20
9393;DHT22;4736;52.508;13.422;2023-04-24T17:07:54;13.70;54.50
9393;DHT22;4736;52.508;13.422;2023-04-24T17:10:57;13.60;55.00
9393;DHT22;4736;52.508;13.422;2023-04-24T17:14:01;13.50;55.60
9393;DHT22;4736;52.508;13.422;2023-04-24T17:17:04;13.50;55.90
9393;DHT22;4736;52.508;13.422;2023-04-24T17:20:09;13.30;56.60
9393;DHT22;4736;52.508;13.422;2023-04-24T17:23:23;13.30;57.40
9393;DHT22;4736;52.508;13.422;2023-04-24T17:26:27;13.20;58.10
9393;DHT22;4736;52.508;13.422;2023-04-24T17:29:33;13.10;58.50
9393;DHT22;4736;52.508;13.422;2023-04-24T17:32:36;13.00;58.90
9393;DHT22;4736;52.508;13.422;2023-04-24T17:35:40;12.90;59.10
9393;DHT22;4736;52.508;13.422;2023-04-24T17:38:43;12.70;58.60
9393;DHT22;4736;52.508;13.422;2023-04-24T17:41:46;12.70;58.40
9393;DHT22;4736;52.508;13.422;2023-04-24T17:44:49;12.70;58.40
9393;DHT22;4736;52.508;13.422;2023-04-24T17:47:52;12.50;58.70
9393;DHT22;4736;52.508;13.422;2023-04-24T17:50:58;12.50;58.60
9393;DHT22;4736;52.508;13.422;2023-04-24T17:54:01;12.30;59.00
9393;DHT22;4736;52.508;13.422;2023-04-24T17:57:04;12.30;59.20
9393;DHT22;4736;52.508;13.422;2023-04-24T18:00:08;12.20;59.30
9393;DHT22;4736;52.508;13.422;2023-04-24T18:03:11;12.20;59.50
9393;DHT22;4736;52.508;13.422;2023-04-24T18:06:16;12.10;59.80
9393;DHT22;4736;52.508;13.422;2023-04-24T18:09:20;12.10;60.00
9393;DHT22;4736;52.508;13.422;2023-04-24T18:12:23;12.00;60.00
9393;DHT22;4736;52.508;13.422;2023-04-24T18:15:26;12.10;59.80
9393;DHT22;4736;52.508;13.422;2023-04-24T18:18:32;12.10;59.40
9393;DHT22;4736;52.508;13.422;2023-04-24T18:21:39;12.00;59.50
9393;DHT22;4736;52.508;13.422;2023-04-24T18:24:43;11.90;59.40
9393;DHT22;4736;52.508;13.422;2023-04-24T18:27:46;11.90;59.40
9393;DHT22;4736;52.508;13.422;2023-04-24T18:30:49;11.70;59.40
9393;DHT22;4736;52.508;13.422;2023-04-24T18:33:52;11.70;59.20
9393;DHT22;4736;52.508;13.422;2023-04-24T18:36:57;11.70;59.30
9393;DHT22;4736;52.508;13.422;2023-04-24T18:40:00;11.70;59.50
9393;DHT22;4736;52.508;13.422;2023-04-24T18:43:05;11.50;59.70
9393;DHT22;4736;52.508;13.422;2023-04-24T18:46:08;11.40;59.90
9393;DHT22;4736;52.508;13.422;2023-04-24T18:49:11;11.30;60.20
9393;DHT22;4736;52.508;13.422;2023-04-24T18:52:18;11.30;60.30
9393;DHT22;4736;52.508;13.422;2023-04-24T18:55:20;11.20;59.60
9393;DHT22;4736;52.508;13.422;2023-04-24T18:58:23;11.10;60.00
9393;DHT22;4736;52.508;13.422;2023-04-24T19:01:26;11.00;60.10
9393;DHT22;4736;52.508;13.422;2023-04-24T19:04:30;10.90;59.80
9393;DHT22;4736;52.508;13.422;2023-04-24T19:07:34;10.80;59.80
9393;DHT22;4736;52.508;13.422;2023-04-24T19:10:37;10.70;60.20
9393;DHT22;4736;52.508;13.422;2023-04-24T19:13:41;10.60;60.60
9393;DHT22;4736;52.508;13.422;2023-04-24T19:16:44;10.60;60.90
9393;DHT22;4736;52.508;13.422;2023-04-24T19:19:48;10.50;60.90
9393;DHT22;4736;52.508;13.422;2023-04-24T19:22:53;10.40;61.20
9393;DHT22;4736;52.508;13.422;2023-04-24T19:25:56;10.40;61.10
9393;DHT22;4736;52.508;13.422;2023-04-24T19:28:59;10.40;61.20
9393;DHT22;4736;52.508;13.422;2023-04-24T19:32:03;10.30;61.30
9393;DHT22;4736;52.508;13.422;2023-04-24T19:35:09;10.30;61.60
9393;DHT22;4736;52.508;13.422;2023-04-24T19:38:13;10.30;61.60
9393;DHT22;4736;52.508;13.422;2023-04-24T19:41:19;10.30;61.50
9393;DHT22;4736;52.508;13.422;2023-04-24T19:44:22;10.30;61.70